Morija, Lesotho
Current Conditions -  °F | °C
As of 11:00 PM on Thursday 23 Oct 2014 (Local Time) from FABL Reporting Station
NA  
Wind Chill: 75°   Ceiling: NA
Heat Index: 75°   Visibility: NA
Dew Point: 32°   Wind: 2mph
Humidity: 21%   Direction: 310°NW
Pressure: 30.09"   Gusts: NA
Location:  29.63°S, 27.52°E
Report Text: FABL 232100Z AUTO 31002KT //// // ////// 24/M00 Q1019
Loading
Personal Weather Stations






























Interactive Weather Map
Tropical Storm Tracking
New forecast layout! Learn more

10-Day Weather Forecast

Advertisements
Track Severe Weather on mobile